createdAt,value
2017-06-11T00:00:04.006Z,936.42
2017-06-11T00:00:32.532Z,936.4
2017-06-11T00:01:01.075Z,936.39
2017-06-11T00:01:29.622Z,936.42
2017-06-11T00:01:58.232Z,936.43
2017-06-11T00:02:26.723Z,936.38
2017-06-11T00:02:55.252Z,936.39
2017-06-11T00:03:23.752Z,936.41
2017-06-11T00:03:52.237Z,936.37
2017-06-11T00:04:20.836Z,936.4
2017-06-11T00:04:49.333Z,936.4
2017-06-11T00:05:17.853Z,936.37
2017-06-11T00:05:46.359Z,936.4
2017-06-11T00:06:14.889Z,936.38
2017-06-11T00:06:43.514Z,936.35
2017-06-11T00:07:12.141Z,936.38
2017-06-11T00:07:40.750Z,936.36
2017-06-11T00:08:09.381Z,936.34
2017-06-11T00:08:37.987Z,936.35
2017-06-11T00:09:06.472Z,936.34
2017-06-11T00:09:34.942Z,936.34
2017-06-11T00:10:03.561Z,936.34
2017-06-11T00:10:32.071Z,936.33
2017-06-11T00:11:00.660Z,936.36
2017-06-11T00:11:29.160Z,936.37
2017-06-11T00:11:57.761Z,936.37
2017-06-11T00:12:26.296Z,936.39
2017-06-11T00:12:54.884Z,936.38
2017-06-11T00:13:23.498Z,936.38
2017-06-11T00:13:51.989Z,936.38
2017-06-11T00:14:20.588Z,936.41
2017-06-11T00:14:49.213Z,936.41
2017-06-11T00:15:17.715Z,936.39
2017-06-11T00:15:46.332Z,936.42
2017-06-11T00:16:14.964Z,936.4
2017-06-11T00:16:43.346Z,936.41
2017-06-11T00:17:11.955Z,936.37
2017-06-11T00:17:40.588Z,936.42
2017-06-11T00:18:09.090Z,936.37
2017-06-11T00:18:37.679Z,936.41
2017-06-11T00:19:06.278Z,936.4
2017-06-11T00:19:34.862Z,936.4
2017-06-11T00:20:03.406Z,936.43
2017-06-11T00:20:32.015Z,936.41
2017-06-11T00:21:00.620Z,936.42
2017-06-11T00:21:29.206Z,936.43
2017-06-11T00:21:57.828Z,936.45
2017-06-11T00:22:26.449Z,936.44
2017-06-11T00:22:55.059Z,936.46
2017-06-11T00:23:23.657Z,936.45
2017-06-11T00:23:52.255Z,936.47
2017-06-11T00:24:20.853Z,936.46
2017-06-11T00:24:49.449Z,936.51
2017-06-11T00:25:18.041Z,936.48
2017-06-11T00:25:46.678Z,936.47
2017-06-11T00:26:15.292Z,936.45
2017-06-11T00:26:43.900Z,936.51
2017-06-11T00:27:12.512Z,936.45
2017-06-11T00:27:41.039Z,936.48
2017-06-11T00:28:09.559Z,936.5
2017-06-11T00:28:38.176Z,936.49
2017-06-11T00:29:06.779Z,936.48
2017-06-11T00:29:35.303Z,936.46
2017-06-11T00:30:03.917Z,936.49
2017-06-11T00:30:32.531Z,936.48
2017-06-11T00:31:01.062Z,936.47
2017-06-11T00:31:29.660Z,936.47
2017-06-11T00:31:58.169Z,936.49
2017-06-11T00:32:26.812Z,936.45
2017-06-11T00:32:55.322Z,936.5
2017-06-11T00:33:23.944Z,936.51
2017-06-11T00:33:52.525Z,936.53
2017-06-11T00:34:21.135Z,936.54
2017-06-11T00:34:49.634Z,936.54
2017-06-11T00:35:18.219Z,936.55
2017-06-11T00:35:46.838Z,936.58
2017-06-11T00:36:15.492Z,936.54
2017-06-11T00:36:43.983Z,936.58
2017-06-11T00:37:12.492Z,936.62
2017-06-11T00:37:41.123Z,936.56
2017-06-11T00:38:09.710Z,936.54
2017-06-11T00:38:38.313Z,936.55
2017-06-11T00:39:06.824Z,936.57
2017-06-11T00:39:35.430Z,936.55
2017-06-11T00:40:04.024Z,936.56
2017-06-11T00:40:32.560Z,936.55
2017-06-11T00:41:01.081Z,936.58
2017-06-11T00:41:29.700Z,936.58
2017-06-11T00:41:58.285Z,936.56
2017-06-11T00:42:26.878Z,936.56
2017-06-11T00:42:55.331Z,936.56
2017-06-11T00:43:23.928Z,936.5
2017-06-11T00:43:52.449Z,936.53
2017-06-11T00:44:21.041Z,936.54
2017-06-11T00:44:49.630Z,936.58
2017-06-11T00:45:18.246Z,936.55
2017-06-11T00:45:46.847Z,936.55
2017-06-11T00:46:15.362Z,936.57
2017-06-11T00:46:43.782Z,936.59
2017-06-11T00:47:12.388Z,936.55
2017-06-11T00:47:40.802Z,936.55
2017-06-11T00:48:09.401Z,936.54
2017-06-11T00:48:38.018Z,936.52
2017-06-11T00:49:06.615Z,936.49
2017-06-11T00:49:35.121Z,936.48
2017-06-11T00:50:03.639Z,936.51
2017-06-11T00:50:32.148Z,936.49
2017-06-11T00:51:00.759Z,936.51
2017-06-11T00:51:29.365Z,936.51
2017-06-11T00:51:57.855Z,936.49
2017-06-11T00:52:26.463Z,936.52
2017-06-11T00:52:55.083Z,936.51
2017-06-11T00:53:23.795Z,936.53
2017-06-11T00:53:52.393Z,936.51
2017-06-11T00:54:20.987Z,936.54
2017-06-11T00:54:49.603Z,936.55
2017-06-11T00:55:18.107Z,936.56
2017-06-11T00:55:46.604Z,936.57
2017-06-11T00:56:15.220Z,936.58
2017-06-11T00:56:43.844Z,936.57
2017-06-11T00:57:12.362Z,936.63
2017-06-11T00:57:40.954Z,936.58
2017-06-11T00:58:09.483Z,936.58
2017-06-11T00:58:38.111Z,936.62
2017-06-11T00:59:06.631Z,936.61
2017-06-11T00:59:35.247Z,936.59
2017-06-11T01:00:03.853Z,936.64
2017-06-11T01:00:32.287Z,936.61
2017-06-11T01:01:00.791Z,936.6
2017-06-11T01:01:29.421Z,936.63
2017-06-11T01:01:57.936Z,936.64
2017-06-11T01:02:26.440Z,936.65
2017-06-11T01:02:55.046Z,936.61
2017-06-11T01:03:23.674Z,936.64
2017-06-11T01:03:52.199Z,936.6
2017-06-11T01:04:20.714Z,936.6
2017-06-11T01:04:49.362Z,936.63
2017-06-11T01:05:17.856Z,936.61
2017-06-11T01:05:46.359Z,936.6
2017-06-11T01:06:14.782Z,936.61
2017-06-11T01:06:43.210Z,936.57
2017-06-11T01:07:11.640Z,936.63
2017-06-11T01:07:40.157Z,936.59
2017-06-11T01:08:08.765Z,936.57
2017-06-11T01:08:37.380Z,936.6
2017-06-11T01:09:05.591Z,936.57
2017-06-11T01:09:34.225Z,936.59
2017-06-11T01:10:02.803Z,936.59
2017-06-11T01:10:31.348Z,936.55
2017-06-11T01:10:59.960Z,936.57
2017-06-11T01:11:28.509Z,936.56
2017-06-11T01:11:56.898Z,936.47
2017-06-11T01:12:25.313Z,936.57
2017-06-11T01:12:53.851Z,936.52
2017-06-11T01:13:22.476Z,936.51
2017-06-11T01:13:51.082Z,936.47
2017-06-11T01:14:19.687Z,936.51
2017-06-11T01:14:48.289Z,936.52
2017-06-11T01:15:16.882Z,936.47
2017-06-11T01:15:45.503Z,936.45
2017-06-11T01:16:14.001Z,936.44
2017-06-11T01:16:42.405Z,936.43
2017-06-11T01:17:11.016Z,936.4
2017-06-11T01:17:39.632Z,936.39
2017-06-11T01:18:08.136Z,936.38
2017-06-11T01:18:36.755Z,936.37
2017-06-11T01:19:05.271Z,936.4
2017-06-11T01:19:33.801Z,936.38
2017-06-11T01:20:02.429Z,936.4
2017-06-11T01:20:31.074Z,936.38
2017-06-11T01:20:59.474Z,936.41
2017-06-11T01:21:27.994Z,936.42
2017-06-11T01:21:56.629Z,936.38
2017-06-11T01:22:25.132Z,936.41
2017-06-11T01:22:53.755Z,936.4
2017-06-11T01:23:22.352Z,936.42
2017-06-11T01:23:50.870Z,936.42
2017-06-11T01:24:19.460Z,936.4
2017-06-11T01:24:48.086Z,936.43
2017-06-11T01:25:16.582Z,936.42
2017-06-11T01:25:45.215Z,936.45
2017-06-11T01:26:13.950Z,936.43
2017-06-11T01:26:42.573Z,936.47
2017-06-11T01:27:11.208Z,936.44
2017-06-11T01:27:39.728Z,936.43
2017-06-11T01:28:08.336Z,936.42
2017-06-11T01:28:36.974Z,936.45
2017-06-11T01:29:05.507Z,936.46
2017-06-11T01:29:34.103Z,936.52
2017-06-11T01:30:02.696Z,936.45
2017-06-11T01:30:31.220Z,936.46
2017-06-11T01:30:59.742Z,936.47
2017-06-11T01:31:28.339Z,936.45
2017-06-11T01:31:56.948Z,936.49
2017-06-11T01:32:25.551Z,936.48
2017-06-11T01:32:54.094Z,936.49
2017-06-11T01:33:22.685Z,936.46
2017-06-11T01:33:51.292Z,936.49
2017-06-11T01:34:19.886Z,936.5
2017-06-11T01:34:48.511Z,936.46
2017-06-11T01:35:16.979Z,936.52
2017-06-11T01:35:45.475Z,936.45
2017-06-11T01:36:14.096Z,936.48
2017-06-11T01:36:42.628Z,936.52
2017-06-11T01:37:11.259Z,936.51
2017-06-11T01:37:39.890Z,936.51
2017-06-11T01:38:08.590Z,936.53
2017-06-11T01:38:37.186Z,936.52
2017-06-11T01:39:05.718Z,936.55
2017-06-11T01:39:34.305Z,936.56
2017-06-11T01:40:02.909Z,936.54
2017-06-11T01:40:31.513Z,936.53
2017-06-11T01:40:59.930Z,936.53
2017-06-11T01:41:28.574Z,936.56
2017-06-11T01:41:57.198Z,936.59
2017-06-11T01:42:25.831Z,936.56
2017-06-11T01:42:54.373Z,936.55
2017-06-11T01:43:22.992Z,936.55
2017-06-11T01:43:51.540Z,936.55
2017-06-11T01:44:20.149Z,936.51
2017-06-11T01:44:48.556Z,936.5
2017-06-11T01:45:17.081Z,936.54
2017-06-11T01:45:45.606Z,936.53
2017-06-11T01:46:14.125Z,936.47
2017-06-11T01:46:42.476Z,936.5
2017-06-11T01:47:10.910Z,936.47
2017-06-11T01:47:39.512Z,936.48
2017-06-11T01:48:08.030Z,936.46
2017-06-11T01:48:36.647Z,936.49
2017-06-11T01:49:05.157Z,936.47
2017-06-11T01:49:33.798Z,936.46
2017-06-11T01:50:02.421Z,936.5
2017-06-11T01:50:30.918Z,936.48
2017-06-11T01:50:59.547Z,936.49
2017-06-11T01:51:28.142Z,936.45
2017-06-11T01:51:56.650Z,936.47
2017-06-11T01:52:25.258Z,936.46
2017-06-11T01:52:53.891Z,936.46
2017-06-11T01:53:22.514Z,936.45
2017-06-11T01:53:51.124Z,936.44
2017-06-11T01:54:19.666Z,936.48
2017-06-11T01:54:48.292Z,936.51
2017-06-11T01:55:16.793Z,936.44
2017-06-11T01:55:45.394Z,936.47
2017-06-11T01:56:13.928Z,936.47
2017-06-11T01:56:42.512Z,936.41
2017-06-11T01:57:11.047Z,936.44
2017-06-11T01:57:39.649Z,936.42
2017-06-11T01:58:08.276Z,936.39
2017-06-11T01:58:36.895Z,936.41
2017-06-11T01:59:05.496Z,936.41
2017-06-11T01:59:34.114Z,936.44
2017-06-11T02:00:02.729Z,936.4
2017-06-11T02:00:31.261Z,936.45
2017-06-11T02:00:59.858Z,936.44
2017-06-11T02:01:28.456Z,936.46
2017-06-11T02:01:57.084Z,936.49
2017-06-11T02:02:25.614Z,936.46
2017-06-11T02:02:54.255Z,936.5
2017-06-11T02:03:22.844Z,936.5
2017-06-11T02:03:51.362Z,936.5
2017-06-11T02:04:19.963Z,936.48
2017-06-11T02:04:48.505Z,936.46
2017-06-11T02:05:16.944Z,936.47
2017-06-11T02:05:45.546Z,936.48
2017-06-11T02:06:14.158Z,936.47
2017-06-11T02:06:42.768Z,936.51
2017-06-11T02:07:11.394Z,936.46
2017-06-11T02:07:39.932Z,936.47
2017-06-11T02:08:08.546Z,936.5
2017-06-11T02:08:37.154Z,936.47
2017-06-11T02:09:05.646Z,936.5
2017-06-11T02:09:34.232Z,936.49
2017-06-11T02:10:02.855Z,936.47
2017-06-11T02:10:31.352Z,936.5
2017-06-11T02:10:59.948Z,936.49
2017-06-11T02:11:28.454Z,936.48
2017-06-11T02:11:57.054Z,936.52
2017-06-11T02:12:25.660Z,936.5
2017-06-11T02:12:54.189Z,936.48
2017-06-11T02:13:22.784Z,936.48
2017-06-11T02:13:51.368Z,936.47
2017-06-11T02:14:19.987Z,936.45
2017-06-11T02:14:48.439Z,936.47
2017-06-11T02:15:17.073Z,936.47
2017-06-11T02:15:45.673Z,936.49
2017-06-11T02:16:14.295Z,936.46
2017-06-11T02:16:42.898Z,936.46
2017-06-11T02:17:11.533Z,936.44
2017-06-11T02:17:40.155Z,936.41
2017-06-11T02:18:08.750Z,936.42
2017-06-11T02:18:37.233Z,936.43
2017-06-11T02:19:05.719Z,936.41
2017-06-11T02:19:34.223Z,936.46
2017-06-11T02:20:02.836Z,936.43
2017-06-11T02:20:31.439Z,936.43
2017-06-11T02:20:59.938Z,936.42
2017-06-11T02:21:28.457Z,936.44
2017-06-11T02:21:56.975Z,936.43
2017-06-11T02:22:25.571Z,936.43
2017-06-11T02:22:54.166Z,936.42
2017-06-11T02:23:23.050Z,936.43
2017-06-11T02:23:51.646Z,936.42
2017-06-11T02:24:20.246Z,936.39
2017-06-11T02:24:48.757Z,936.37
2017-06-11T02:25:17.268Z,936.38
2017-06-11T02:25:45.870Z,936.37
2017-06-11T02:26:14.465Z,936.34
2017-06-11T02:26:43.056Z,936.32
2017-06-11T02:27:11.505Z,936.3
2017-06-11T02:27:40.109Z,936.31
2017-06-11T02:28:08.706Z,936.27
2017-06-11T02:28:37.131Z,936.29
2017-06-11T02:29:05.654Z,936.29
2017-06-11T02:29:34.259Z,936.27
2017-06-11T02:30:02.874Z,936.28
2017-06-11T02:30:31.473Z,936.29
2017-06-11T02:30:59.978Z,936.28
2017-06-11T02:31:28.595Z,936.25
2017-06-11T02:31:57.141Z,936.26
2017-06-11T02:32:25.734Z,936.27
2017-06-11T02:32:54.254Z,936.26
2017-06-11T02:33:22.657Z,936.21
2017-06-11T02:33:51.270Z,936.29
2017-06-11T02:34:19.854Z,936.22
2017-06-11T02:34:48.376Z,936.24
2017-06-11T02:35:16.943Z,936.25
2017-06-11T02:35:45.553Z,936.25
2017-06-11T02:36:14.192Z,936.27
2017-06-11T02:36:42.829Z,936.28
2017-06-11T02:37:11.433Z,936.27
2017-06-11T02:37:40.031Z,936.27
2017-06-11T02:38:08.577Z,936.25
2017-06-11T02:38:37.197Z,936.24
2017-06-11T02:39:05.716Z,936.26
2017-06-11T02:39:34.325Z,936.26
2017-06-11T02:40:02.933Z,936.21
2017-06-11T02:40:31.457Z,936.24
2017-06-11T02:41:00.065Z,936.21
2017-06-11T02:41:28.649Z,936.22
2017-06-11T02:41:57.262Z,936.21
2017-06-11T02:42:25.779Z,936.21
2017-06-11T02:42:54.294Z,936.19
2017-06-11T02:43:22.892Z,936.21
2017-06-11T02:43:51.440Z,936.21
2017-06-11T02:44:20.052Z,936.18
2017-06-11T02:44:48.645Z,936.19
2017-06-11T02:45:17.178Z,936.17
2017-06-11T02:45:45.776Z,936.24
2017-06-11T02:46:14.375Z,936.2
2017-06-11T02:46:42.997Z,936.16
2017-06-11T02:47:11.498Z,936.17
2017-06-11T02:47:40.087Z,936.16
2017-06-11T02:48:08.617Z,936.16
2017-06-11T02:48:37.115Z,936.16
2017-06-11T02:49:05.648Z,936.13
2017-06-11T02:49:34.251Z,936.1
2017-06-11T02:50:02.890Z,936.14
2017-06-11T02:50:31.488Z,936.13
2017-06-11T02:51:00.031Z,936.11
2017-06-11T02:51:28.644Z,936.11
2017-06-11T02:51:57.271Z,936.09
2017-06-11T02:52:25.801Z,936.06
2017-06-11T02:52:54.292Z,936.07
2017-06-11T02:53:22.806Z,936.03
2017-06-11T02:53:51.417Z,936.08
2017-06-11T02:54:19.907Z,936.03
2017-06-11T02:54:48.526Z,936.03
2017-06-11T02:55:17.057Z,936.03
2017-06-11T02:55:45.590Z,936
2017-06-11T02:56:14.176Z,936.04
2017-06-11T02:56:42.684Z,936
2017-06-11T02:57:11.286Z,936
2017-06-11T02:57:39.887Z,935.99
2017-06-11T02:58:08.500Z,936.01
2017-06-11T02:58:37.103Z,935.98
2017-06-11T02:59:05.725Z,935.96
2017-06-11T02:59:34.301Z,935.99
2017-06-11T03:00:02.921Z,935.93
2017-06-11T03:00:31.448Z,935.91
2017-06-11T03:01:00.040Z,935.96
2017-06-11T03:01:28.666Z,935.94
2017-06-11T03:01:57.299Z,935.93
2017-06-11T03:02:25.884Z,935.87
2017-06-11T03:02:54.383Z,935.89
2017-06-11T03:03:22.995Z,935.97
2017-06-11T03:03:51.590Z,935.91
2017-06-11T03:04:20.206Z,935.88
2017-06-11T03:04:48.640Z,935.87
2017-06-11T03:05:17.269Z,935.87
2017-06-11T03:05:45.894Z,935.9
2017-06-11T03:06:14.468Z,935.92
2017-06-11T03:06:43.069Z,935.91
2017-06-11T03:07:11.616Z,935.89
2017-06-11T03:07:40.119Z,935.9
2017-06-11T03:08:08.564Z,935.94
2017-06-11T03:08:37.167Z,935.91
2017-06-11T03:09:05.676Z,935.94
2017-06-11T03:09:34.286Z,935.95
2017-06-11T03:10:02.880Z,935.93
2017-06-11T03:10:31.474Z,935.95
2017-06-11T03:11:00.089Z,935.94
2017-06-11T03:11:28.495Z,935.95
2017-06-11T03:11:57.109Z,935.95
2017-06-11T03:12:25.714Z,935.93
2017-06-11T03:12:54.313Z,935.95
2017-06-11T03:13:22.922Z,935.89
2017-06-11T03:13:51.271Z,935.92
2017-06-11T03:14:19.876Z,935.88
2017-06-11T03:14:48.501Z,935.9
2017-06-11T03:15:17.121Z,935.89
2017-06-11T03:15:45.722Z,935.87
2017-06-11T03:16:14.336Z,935.88
2017-06-11T03:16:42.881Z,935.88
2017-06-11T03:17:11.472Z,935.88
2017-06-11T03:17:40.070Z,935.82
2017-06-11T03:18:08.761Z,935.86
2017-06-11T03:18:37.275Z,935.87
2017-06-11T03:19:05.898Z,935.86
2017-06-11T03:19:34.403Z,935.84
2017-06-11T03:20:02.934Z,935.82
2017-06-11T03:20:31.537Z,935.84
2017-06-11T03:21:00.038Z,935.85
2017-06-11T03:21:28.612Z,935.85
2017-06-11T03:21:57.227Z,935.82
2017-06-11T03:22:25.842Z,935.84
2017-06-11T03:22:54.453Z,935.86
2017-06-11T03:23:23.036Z,935.86
2017-06-11T03:23:51.660Z,935.8
2017-06-11T03:24:20.252Z,935.84
2017-06-11T03:24:48.836Z,935.84
2017-06-11T03:25:17.431Z,935.82
2017-06-11T03:25:46.035Z,935.84
2017-06-11T03:26:14.564Z,935.83
2017-06-11T03:26:43.184Z,935.81
2017-06-11T03:27:11.710Z,935.85
2017-06-11T03:27:40.315Z,935.84
2017-06-11T03:28:08.893Z,935.86
2017-06-11T03:28:37.474Z,935.85
2017-06-11T03:29:05.810Z,935.85
2017-06-11T03:29:34.336Z,935.92
2017-06-11T03:30:02.961Z,935.88
2017-06-11T03:30:31.582Z,935.88
2017-06-11T03:31:00.284Z,935.87
2017-06-11T03:31:28.878Z,935.89
2017-06-11T03:31:57.477Z,935.92
2017-06-11T03:32:26.117Z,935.87
2017-06-11T03:32:54.721Z,935.91
2017-06-11T03:33:23.337Z,935.91
2017-06-11T03:33:51.833Z,935.9
2017-06-11T03:34:20.333Z,935.88
2017-06-11T03:34:48.864Z,935.89
2017-06-11T03:35:17.376Z,935.89
2017-06-11T03:35:45.986Z,935.87
2017-06-11T03:36:14.603Z,935.9
2017-06-11T03:36:43.203Z,935.87
2017-06-11T03:37:11.708Z,935.86
2017-06-11T03:37:40.128Z,935.86
2017-06-11T03:38:08.734Z,935.83
2017-06-11T03:38:37.398Z,935.86
2017-06-11T03:39:05.886Z,935.83
2017-06-11T03:39:34.487Z,935.8
2017-06-11T03:40:03.100Z,935.82
2017-06-11T03:40:31.609Z,935.81
2017-06-11T03:41:00.211Z,935.81
2017-06-11T03:41:28.805Z,935.81
2017-06-11T03:41:57.337Z,935.82
2017-06-11T03:42:25.930Z,935.81
2017-06-11T03:42:54.428Z,935.83
2017-06-11T03:43:22.942Z,935.81
2017-06-11T03:43:51.547Z,935.8
2017-06-11T03:44:20.065Z,935.81
2017-06-11T03:44:48.683Z,935.78
2017-06-11T03:45:17.289Z,935.79
2017-06-11T03:45:45.821Z,935.75
2017-06-11T03:46:14.411Z,935.79
2017-06-11T03:46:43.010Z,935.79
2017-06-11T03:47:11.645Z,935.79
2017-06-11T03:47:40.268Z,935.77
2017-06-11T03:48:08.864Z,935.75
2017-06-11T03:48:37.498Z,935.77
2017-06-11T03:49:05.971Z,935.75
2017-06-11T03:49:34.490Z,935.77
2017-06-11T03:50:03.102Z,935.74
2017-06-11T03:50:31.634Z,935.77
2017-06-11T03:51:00.226Z,935.74
2017-06-11T03:51:28.817Z,935.75
2017-06-11T03:51:57.405Z,935.76
2017-06-11T03:52:26.025Z,935.74
2017-06-11T03:52:54.471Z,935.72
2017-06-11T03:53:23.093Z,935.72
2017-06-11T03:53:51.577Z,935.71
2017-06-11T03:54:20.182Z,935.75
2017-06-11T03:54:48.802Z,935.7
2017-06-11T03:55:17.419Z,935.74
2017-06-11T03:55:46.019Z,935.7
2017-06-11T03:56:14.626Z,935.73
2017-06-11T03:56:43.250Z,935.72
2017-06-11T03:57:11.843Z,935.7
2017-06-11T03:57:40.450Z,935.69
2017-06-11T03:58:09.043Z,935.68
2017-06-11T03:58:37.575Z,935.67
2017-06-11T03:59:06.194Z,935.68
2017-06-11T03:59:34.689Z,935.69
2017-06-11T04:00:03.281Z,935.65
2017-06-11T04:00:31.740Z,935.64
2017-06-11T04:01:00.248Z,935.67
2017-06-11T04:01:28.853Z,935.64
2017-06-11T04:01:57.363Z,935.61
2017-06-11T04:02:25.975Z,935.61
2017-06-11T04:02:54.485Z,935.59
2017-06-11T04:03:23.082Z,935.58
2017-06-11T04:03:51.610Z,935.64
2017-06-11T04:04:20.116Z,935.6
2017-06-11T04:04:48.754Z,935.6
2017-06-11T04:05:17.289Z,935.58
2017-06-11T04:05:45.915Z,935.58
2017-06-11T04:06:14.554Z,935.52
2017-06-11T04:06:43.157Z,935.5
2017-06-11T04:07:11.605Z,935.55
2017-06-11T04:07:40.222Z,935.56
2017-06-11T04:08:08.868Z,935.51
2017-06-11T04:08:37.474Z,935.54
2017-06-11T04:09:05.992Z,935.53
2017-06-11T04:09:34.608Z,935.53
2017-06-11T04:10:03.217Z,935.52
2017-06-11T04:10:31.836Z,935.52
2017-06-11T04:11:00.353Z,935.49
2017-06-11T04:11:28.978Z,935.49
2017-06-11T04:11:57.600Z,935.47
2017-06-11T04:12:26.216Z,935.48
2017-06-11T04:12:54.827Z,935.5
2017-06-11T04:13:23.424Z,935.48
2017-06-11T04:13:52.012Z,935.5
2017-06-11T04:14:20.637Z,935.49
2017-06-11T04:14:49.134Z,935.51
2017-06-11T04:15:17.800Z,935.47
2017-06-11T04:15:46.236Z,935.49
2017-06-11T04:16:14.822Z,935.49
2017-06-11T04:16:43.428Z,935.48
2017-06-11T04:17:12.016Z,935.48
2017-06-11T04:17:40.428Z,935.49
2017-06-11T04:18:09.051Z,935.48
2017-06-11T04:18:37.646Z,935.51
2017-06-11T04:19:06.276Z,935.47
2017-06-11T04:19:34.869Z,935.47
2017-06-11T04:20:03.467Z,935.49
2017-06-11T04:20:32.070Z,935.48
2017-06-11T04:21:00.489Z,935.45
2017-06-11T04:21:30.296Z,935.51
2017-06-11T04:21:58.824Z,935.47
2017-06-11T04:22:27.435Z,935.47
2017-06-11T04:22:55.966Z,935.46
2017-06-11T04:23:24.580Z,935.45
2017-06-11T04:23:53.166Z,935.48
2017-06-11T04:24:21.674Z,935.47
2017-06-11T04:24:50.305Z,935.47
2017-06-11T04:25:18.939Z,935.48
2017-06-11T04:25:47.556Z,935.47
2017-06-11T04:26:16.078Z,935.44
2017-06-11T04:26:44.682Z,935.49
2017-06-11T04:27:13.307Z,935.45
2017-06-11T04:27:42.017Z,935.51
2017-06-11T04:28:10.447Z,935.48
2017-06-11T04:28:39.043Z,935.48
2017-06-11T04:29:07.660Z,935.49
2017-06-11T04:29:36.231Z,935.47
2017-06-11T04:30:04.754Z,935.5
2017-06-11T04:30:33.365Z,935.48
2017-06-11T04:31:01.962Z,935.48
2017-06-11T04:31:30.583Z,935.47
2017-06-11T04:31:59.217Z,935.47
2017-06-11T04:32:27.801Z,935.47
2017-06-11T04:32:56.322Z,935.43
2017-06-11T04:33:24.923Z,935.46
2017-06-11T04:33:53.531Z,935.45
2017-06-11T04:34:22.124Z,935.46
2017-06-11T04:34:50.621Z,935.45
2017-06-11T04:35:19.245Z,935.47
2017-06-11T04:35:47.830Z,935.44
2017-06-11T04:36:16.419Z,935.45
2017-06-11T04:36:44.857Z,935.41
2017-06-11T04:37:13.485Z,935.42
2017-06-11T04:37:41.996Z,935.41
2017-06-11T04:38:10.414Z,935.4
2017-06-11T04:38:39.036Z,935.43
2017-06-11T04:39:07.542Z,935.41
2017-06-11T04:39:36.146Z,935.4
2017-06-11T04:40:04.679Z,935.36
2017-06-11T04:40:33.258Z,935.36
2017-06-11T04:41:01.861Z,935.37
2017-06-11T04:41:30.499Z,935.35
2017-06-11T04:41:59.098Z,935.34
2017-06-11T04:42:27.603Z,935.36
2017-06-11T04:42:56.193Z,935.39
2017-06-11T04:43:24.795Z,935.37
2017-06-11T04:43:53.284Z,935.38
2017-06-11T04:44:21.866Z,935.36
2017-06-11T04:44:50.288Z,935.34
2017-06-11T04:45:18.803Z,935.38
2017-06-11T04:45:47.303Z,935.39
2017-06-11T04:46:15.930Z,935.39
2017-06-11T04:46:44.503Z,935.39
2017-06-11T04:47:13.137Z,935.36
2017-06-11T04:47:41.643Z,935.39
2017-06-11T04:48:10.254Z,935.38
2017-06-11T04:48:38.854Z,935.37
2017-06-11T04:49:07.397Z,935.39
2017-06-11T04:49:35.940Z,935.37
2017-06-11T04:50:04.556Z,935.35
2017-06-11T04:50:33.167Z,935.37
2017-06-11T04:51:01.666Z,935.3
2017-06-11T04:51:30.296Z,935.34
2017-06-11T04:51:58.915Z,935.3
2017-06-11T04:52:27.501Z,935.3
2017-06-11T04:52:56.018Z,935.32
2017-06-11T04:53:24.568Z,935.27
2017-06-11T04:53:53.164Z,935.27
2017-06-11T04:54:21.756Z,935.26
2017-06-11T04:54:50.253Z,935.27
2017-06-11T04:55:18.858Z,935.22
2017-06-11T04:55:47.470Z,935.24
2017-06-11T04:56:16.072Z,935.22
2017-06-11T04:57:03.878Z,935.21
2017-06-11T04:57:32.492Z,935.24
2017-06-11T04:58:01.094Z,935.22
2017-06-11T04:58:29.609Z,935.21
2017-06-11T04:58:58.208Z,935.23
2017-06-11T04:59:26.699Z,935.23
2017-06-11T04:59:55.297Z,935.2
2017-06-11T05:00:23.894Z,935.22
2017-06-11T05:00:52.528Z,935.26
2017-06-11T05:01:21.046Z,935.26
2017-06-11T05:01:49.578Z,935.23
2017-06-11T05:02:18.110Z,935.23
2017-06-11T05:02:46.731Z,935.24
2017-06-11T05:03:15.399Z,935.26
2017-06-11T05:03:44.071Z,935.24
2017-06-11T05:04:12.691Z,935.27
2017-06-11T05:04:41.136Z,935.25
2017-06-11T05:05:09.678Z,935.26
2017-06-11T05:05:38.274Z,935.26
2017-06-11T05:06:06.856Z,935.27
2017-06-11T05:06:35.492Z,935.28
2017-06-11T05:07:04.076Z,935.26
2017-06-11T05:07:32.728Z,935.29
2017-06-11T05:08:01.262Z,935.3
2017-06-11T05:08:29.877Z,935.31
2017-06-11T05:08:58.466Z,935.28
2017-06-11T05:09:27.070Z,935.3
2017-06-11T05:09:55.578Z,935.27
2017-06-11T05:10:23.893Z,935.28
2017-06-11T05:10:52.515Z,935.3
2017-06-11T05:11:21.047Z,935.28
2017-06-11T05:11:49.687Z,935.24
2017-06-11T05:12:18.300Z,935.23
2017-06-11T05:12:46.915Z,935.23
2017-06-11T05:13:15.527Z,935.23
2017-06-11T05:13:43.970Z,935.22
2017-06-11T05:14:12.491Z,935.22
2017-06-11T05:14:41.036Z,935.27
2017-06-11T05:15:09.642Z,935.27
2017-06-11T05:15:38.254Z,935.26
2017-06-11T05:16:06.861Z,935.24
2017-06-11T05:16:35.471Z,935.21
2017-06-11T05:17:03.973Z,935.22
2017-06-11T05:17:32.583Z,935.24
2017-06-11T05:18:01.191Z,935.21
2017-06-11T05:18:29.793Z,935.2
2017-06-11T05:18:58.301Z,935.21
2017-06-11T05:19:26.879Z,935.19
2017-06-11T05:19:55.399Z,935.23
2017-06-11T05:20:24.027Z,935.2
2017-06-11T05:20:52.629Z,935.24
2017-06-11T05:21:21.231Z,935.2
2017-06-11T05:21:49.834Z,935.17
2017-06-11T05:22:18.360Z,935.18
2017-06-11T05:22:46.966Z,935.18
2017-06-11T05:23:15.489Z,935.16
2017-06-11T05:23:44.085Z,935.18
2017-06-11T05:24:12.612Z,935.16
2017-06-11T05:24:41.209Z,935.15
2017-06-11T05:25:09.834Z,935.11
2017-06-11T05:25:38.348Z,935.13
2017-06-11T05:26:06.947Z,935.11
2017-06-11T05:26:35.540Z,935.11
2017-06-11T05:27:04.140Z,935.14
2017-06-11T05:27:32.775Z,935.14
2017-06-11T05:28:01.375Z,935.11
2017-06-11T05:28:29.902Z,935.1
2017-06-11T05:28:58.406Z,935.14
2017-06-11T05:29:27.034Z,935.14
2017-06-11T05:29:55.666Z,935.15
2017-06-11T05:30:24.184Z,935.15
2017-06-11T05:30:52.793Z,935.15
2017-06-11T05:31:21.395Z,935.15
2017-06-11T05:31:50.014Z,935.16
2017-06-11T05:32:18.544Z,935.16
2017-06-11T05:32:47.046Z,935.13
2017-06-11T05:33:15.633Z,935.13
2017-06-11T05:33:44.161Z,935.05
2017-06-11T05:34:12.742Z,935.1
2017-06-11T05:34:41.352Z,935.09
2017-06-11T05:35:09.954Z,935.14
2017-06-11T05:35:38.484Z,935.11
2017-06-11T05:36:07.075Z,935.11
2017-06-11T05:36:35.705Z,935.07
2017-06-11T05:37:04.235Z,935.11
2017-06-11T05:37:32.811Z,935.09
2017-06-11T05:38:01.395Z,935.07
2017-06-11T05:38:29.991Z,935.1
2017-06-11T05:38:58.502Z,935.11
2017-06-11T05:39:27.073Z,935.09
2017-06-11T05:40:29.216Z,935.07
2017-06-11T05:40:57.733Z,935.06
2017-06-11T05:41:26.359Z,935.06
2017-06-11T05:41:54.860Z,935.02
2017-06-11T05:42:23.443Z,935.03
2017-06-11T05:42:51.958Z,935.07
2017-06-11T05:43:20.562Z,935.05
2017-06-11T05:43:49.096Z,935.04
2017-06-11T05:44:17.689Z,935.06
2017-06-11T05:44:46.313Z,935
2017-06-11T05:45:14.929Z,934.99
2017-06-11T05:45:43.547Z,934.99
2017-06-11T05:46:12.142Z,934.97
2017-06-11T05:46:40.739Z,934.96
2017-06-11T05:47:09.249Z,934.98
2017-06-11T05:47:37.865Z,934.94
2017-06-11T05:48:06.495Z,934.94
2017-06-11T05:48:35.119Z,934.94
2017-06-11T05:49:03.526Z,934.93
2017-06-11T05:49:32.130Z,934.93
2017-06-11T05:50:00.639Z,934.97
2017-06-11T05:50:29.228Z,934.92
2017-06-11T05:50:57.645Z,934.93
2017-06-11T05:51:26.261Z,934.91
2017-06-11T05:51:54.862Z,934.91
2017-06-11T05:52:23.491Z,934.91
2017-06-11T05:52:52.134Z,934.94
2017-06-11T05:53:20.748Z,934.94
2017-06-11T05:53:49.374Z,934.91
2017-06-11T05:54:17.987Z,934.9
2017-06-11T05:54:46.623Z,934.91
2017-06-11T05:55:15.143Z,934.9
2017-06-11T05:55:43.754Z,934.91
2017-06-11T05:56:12.304Z,934.9
2017-06-11T05:56:40.810Z,934.91
2017-06-11T05:57:09.340Z,934.86
2017-06-11T05:57:37.922Z,934.85
2017-06-11T05:58:06.518Z,934.88
2017-06-11T05:58:35.121Z,934.87